Time;durP1;ratioP1;P1;durP2;ratioP2;P2;SDS_P1;SDS_P2;PMS_P1;PMS_P2;Temp;Humidity;BMP_temperature;BMP_pressure;BME280_temperature;BME280_humidity;BME280_pressure;Samples;Min_cycle;Max_cycle;Signal;HPM_P1;HPM_P2
2021/12/24 00:01:56;;;;;;;88.50;25.88;;;6.30;99.90;;;;;;5073865;28;20051;-79
2021/12/24 00:04:22;;;;;;;82.60;23.83;;;6.30;99.90;;;;;;5055865;28;20594;-78
2021/12/24 00:06:52;;;;;;;102.90;26.83;;;6.30;99.90;;;;;;5037786;28;20463;-79
2021/12/24 00:09:25;;;;;;;90.32;25.10;;;6.30;99.90;;;;;;5073560;28;20040;-79
2021/12/24 00:11:56;;;;;;;93.40;25.83;;;6.40;99.90;;;;;;5073717;28;20045;-79
2021/12/24 00:14:23;;;;;;;105.13;25.55;;;6.40;99.90;;;;;;5072870;28;20044;-79
2021/12/24 00:16:53;;;;;;;133.55;25.38;;;6.40;99.90;;;;;;5073672;28;20094;-79
2021/12/24 00:19:33;;;;;;;83.93;23.30;;;5.40;99.90;;;;;;5073372;28;20396;-79
2021/12/24 00:22:39;;;;;;;114.93;25.95;;;6.50;99.90;;;;;;5071873;28;20052;-79
2021/12/24 00:35:52;;;;;;;90.63;24.17;;;6.50;99.90;;;;;;5072544;28;20044;-79
2021/12/24 00:38:18;;;;;;;58.97;18.90;;;6.50;99.90;;;;;;5073514;28;20488;-79
2021/12/24 00:40:46;;;;;;;106.53;23.42;;;6.60;99.90;;;;;;5073295;28;20113;-78
2021/12/24 00:43:14;;;;;;;93.53;21.58;;;6.60;99.90;;;;;;5072682;28;20086;-78
2021/12/24 00:45:42;;;;;;;71.88;19.95;;;6.60;99.90;;;;;;5053327;28;20048;-78
2021/12/24 00:48:11;;;;;;;93.45;21.48;;;6.60;99.90;;;;;;5052580;28;20103;-78
2021/12/24 00:51:06;;;;;;;73.60;19.00;;;6.70;99.90;;;;;;5059906;28;20032;-79
2021/12/24 00:56:08;;;;;;;61.05;16.73;;;6.70;99.90;;;;;;5072535;28;19931;-78
2021/12/24 00:58:34;;;;;;;61.58;17.90;;;6.60;99.90;;;;;;5073143;28;20132;-79
2021/12/24 01:01:00;;;;;;;54.97;16.92;;;6.70;99.90;;;;;;5073332;28;20046;-78
2021/12/24 01:03:26;;;;;;;66.95;18.52;;;6.70;99.90;;;;;;5072393;28;20044;-79
2021/12/24 01:05:52;;;;;;;56.35;17.55;;;6.70;99.90;;;;;;5055043;28;20123;-79
2021/12/24 01:08:17;;;;;;;74.60;19.33;;;6.70;99.90;;;;;;5073203;28;20055;-78
2021/12/24 01:10:50;;;;;;;74.25;19.88;;;6.80;99.90;;;;;;5072190;28;20049;-79
2021/12/24 01:13:16;;;;;;;73.68;18.13;;;6.80;99.90;;;;;;5073031;28;20040;-79
2021/12/24 01:15:55;;;;;;;71.93;17.63;;;6.80;99.90;;;;;;5055186;28;20049;-79
2021/12/24 01:18:33;;;;;;;57.67;15.60;;;6.80;99.90;;;;;;5071762;28;20559;-79
2021/12/24 01:23:50;;;;;;;73.78;20.15;;;6.90;99.90;;;;;;5071989;28;20059;-79
2021/12/24 01:42:59;;;;;;;89.40;22.27;;;7.10;99.90;;;;;;5076635;28;20277;-80
2021/12/24 01:45:25;;;;;;;68.78;19.45;;;7.10;99.90;;;;;;5064523;28;20045;-79
2021/12/24 01:47:54;;;;;;;72.30;18.17;;;7.10;99.90;;;;;;5076676;28;20059;-79
2021/12/24 01:50:21;;;;;;;75.35;18.80;;;7.20;99.90;;;;;;5076236;28;20048;-79
2021/12/24 01:52:49;;;;;;;101.60;22.80;;;7.20;99.90;;;;;;5075409;28;20045;-80
2021/12/24 01:55:16;;;;;;;58.88;17.00;;;7.10;99.90;;;;;;5076211;28;20053;-80
2021/12/24 01:57:42;;;;;;;61.58;17.48;;;7.20;99.90;;;;;;5076462;28;20054;-79
2021/12/24 02:00:11;;;;;;;60.05;17.17;;;7.20;99.90;;;;;;5057691;28;20053;-79
2021/12/24 02:02:37;;;;;;;75.18;18.08;;;7.20;99.90;;;;;;5076130;28;20097;-79
2021/12/24 02:05:03;;;;;;;71.95;18.17;;;7.20;99.90;;;;;;5075828;28;20053;-79
2021/12/24 02:07:29;;;;;;;49.38;15.98;;;7.30;99.90;;;;;;5075396;28;20102;-79
2021/12/24 02:09:55;;;;;;;64.72;17.88;;;7.30;99.90;;;;;;5058605;28;20496;-79
2021/12/24 02:12:23;;;;;;;64.32;16.88;;;7.30;99.90;;;;;;5076091;28;20032;-79
2021/12/24 02:14:52;;;;;;;63.75;15.80;;;7.30;99.90;;;;;;5075093;28;20048;-79
2021/12/24 02:30:49;;;;;;;58.08;12.82;;;7.60;99.90;;;;;;5075754;28;20488;-79
2021/12/24 02:33:15;;;;;;;49.85;13.73;;;7.60;99.90;;;;;;5075191;28;20029;-79
2021/12/24 02:35:41;;;;;;;37.58;11.50;;;7.60;99.90;;;;;;5074435;28;20052;-80
2021/12/24 02:38:08;;;;;;;54.85;12.93;;;7.70;99.90;;;;;;5075473;28;20047;-80
2021/12/24 02:40:35;;;;;;;37.42;11.57;;;7.70;99.90;;;;;;5075669;28;20455;-80
2021/12/24 02:43:01;;;;;;;36.08;10.43;;;7.70;99.90;;;;;;5074194;28;20049;-80
2021/12/24 02:45:30;;;;;;;45.15;12.23;;;7.80;99.90;;;;;;5074738;28;20055;-79
2021/12/24 02:55:34;;;;;;;40.33;11.68;;;7.90;99.90;;;;;;5056990;28;20087;-79
2021/12/24 02:58:03;;;;;;;59.22;15.32;;;7.90;99.90;;;;;;5075518;28;20091;-78
2021/12/24 03:00:30;;;;;;;91.43;17.27;;;8.00;99.90;;;;;;5075373;28;20036;-79
2021/12/24 03:02:56;;;;;;;74.65;16.83;;;8.00;99.90;;;;;;5056557;28;20049;-78
2021/12/24 03:05:24;;;;;;;78.13;17.65;;;8.00;99.90;;;;;;5040019;28;20093;-78
2021/12/24 03:07:54;;;;;;;62.63;15.20;;;8.00;99.90;;;;;;5057194;28;20051;-78
2021/12/24 03:10:23;;;;;;;93.68;18.90;;;8.00;99.90;;;;;;5056399;28;20079;-79
2021/12/24 03:12:52;;;;;;;78.20;18.48;;;8.10;99.90;;;;;;5056826;28;20044;-78
2021/12/24 03:15:19;;;;;;;56.58;14.48;;;8.10;99.90;;;;;;5074848;28;20071;-78
2021/12/24 03:17:53;;;;;;;58.58;15.10;;;8.10;99.90;;;;;;5039160;28;20068;-78
2021/12/24 03:20:20;;;;;;;64.53;17.55;;;8.10;99.90;;;;;;5074633;28;20543;-79
2021/12/24 03:25:13;;;;;;;53.10;13.57;;;8.20;99.90;;;;;;5056636;28;20436;-77
2021/12/24 03:27:39;;;;;;;58.97;15.65;;;8.20;99.90;;;;;;5056853;28;20131;-78
2021/12/24 03:30:05;;;;;;;48.60;14.73;;;8.30;99.90;;;;;;5056089;28;20134;-79
2021/12/24 03:32:31;;;;;;;61.88;16.60;;;8.30;99.90;;;;;;5056978;28;20102;-78
2021/12/24 03:34:58;;;;;;;52.00;13.63;;;8.30;99.90;;;;;;5039663;28;20111;-78
2021/12/24 03:37:24;;;;;;;84.13;18.23;;;9.40;99.90;;;;;;5055524;28;20043;-79
2021/12/24 03:39:50;;;;;;;74.60;16.48;;;8.40;99.90;;;;;;5039817;28;20048;-79
2021/12/24 03:42:15;;;;;;;104.95;19.10;;;8.40;99.90;;;;;;5039636;28;20044;-79
2021/12/24 03:44:45;;;;;;;76.05;18.85;;;8.40;99.90;;;;;;5073460;28;20127;-78
2021/12/24 03:47:18;;;;;;;73.63;19.75;;;8.40;99.90;;;;;;5056290;28;20059;-78
2021/12/24 03:54:58;;;;;;;89.20;21.05;;;8.40;99.90;;;;;;5074281;28;20123;-78
2021/12/24 03:57:25;;;;;;;63.78;17.75;;;8.50;99.90;;;;;;5039511;28;20480;-77
2021/12/24 03:59:51;;;;;;;80.68;22.17;;;8.50;99.90;;;;;;5073353;28;20124;-78
2021/12/24 04:02:17;;;;;;;90.55;23.83;;;8.50;99.90;;;;;;5055935;28;20460;-77
2021/12/24 04:04:43;;;;;;;63.92;19.80;;;8.50;99.90;;;;;;5073902;28;20087;-78
2021/12/24 04:07:09;;;;;;;87.03;23.08;;;8.60;99.90;;;;;;5072858;28;20079;-78
2021/12/24 04:09:36;;;;;;;83.07;21.60;;;8.60;99.90;;;;;;5073521;28;20051;-77
2021/12/24 04:12:03;;;;;;;61.88;20.00;;;8.60;99.90;;;;;;5073553;28;20121;-76
2021/12/24 04:14:29;;;;;;;54.67;21.33;;;8.60;99.90;;;;;;5073571;28;20491;-78
2021/12/24 04:16:55;;;;;;;67.72;21.20;;;8.70;99.90;;;;;;5055768;28;20132;-77
2021/12/24 04:27:17;;;;;;;59.55;19.83;;;8.70;99.90;;;;;;5051574;28;20056;-76
2021/12/24 04:29:43;;;;;;;49.15;17.73;;;8.70;99.90;;;;;;5052257;28;20574;-77
2021/12/24 04:32:14;;;;;;;51.85;18.00;;;8.70;99.90;;;;;;5052253;28;20053;-78
2021/12/24 04:34:46;;;;;;;39.88;16.05;;;8.70;99.90;;;;;;5035166;28;20041;-77
2021/12/24 05:02:26;;;;;;;50.95;19.17;;;8.80;99.90;;;;;;5052473;28;20128;-78
2021/12/24 05:04:38;;;;;;;42.92;17.33;;;8.80;99.90;;;;;;5052775;28;20408;-77
2021/12/24 05:07:19;;;;;;;47.80;17.10;;;8.80;99.90;;;;;;5051756;28;20496;-78
2021/12/24 05:09:45;;;;;;;41.50;17.35;;;8.80;99.90;;;;;;5053736;28;20374;-77
2021/12/24 05:12:10;;;;;;;39.28;16.92;;;8.80;99.90;;;;;;5039657;28;20088;-77
2021/12/24 05:14:36;;;;;;;43.30;18.08;;;8.80;99.90;;;;;;5055640;28;20403;-77
2021/12/24 05:22:51;;;;;;;48.08;17.17;;;8.80;99.90;;;;;;5033988;28;20060;-77
2021/12/24 05:25:17;;;;;;;49.47;16.88;;;8.80;99.90;;;;;;5011131;28;20050;-77
2021/12/24 05:27:43;;;;;;;49.75;16.88;;;8.80;99.90;;;;;;5037120;28;20469;-77
2021/12/24 05:30:09;;;;;;;56.28;18.02;;;8.80;99.90;;;;;;5018322;28;20408;-76
2021/12/24 05:32:36;;;;;;;46.53;14.85;;;8.80;99.90;;;;;;5037052;28;20501;-77
2021/12/24 05:35:03;;;;;;;56.83;15.65;;;8.80;99.90;;;;;;5020745;28;20045;-77
2021/12/24 05:37:28;;;;;;;47.78;15.20;;;8.80;99.90;;;;;;5055932;28;20055;-77
2021/12/24 05:39:54;;;;;;;55.97;16.25;;;8.80;99.90;;;;;;5055401;28;20131;-76
2021/12/24 05:42:22;;;;;;;45.88;13.20;;;8.80;99.90;;;;;;5055295;28;20095;-77
2021/12/24 05:44:48;;;;;;;37.47;12.63;;;8.80;99.90;;;;;;5054918;28;20053;-76
2021/12/24 05:47:14;;;;;;;42.83;12.00;;;8.70;99.90;;;;;;5055702;28;20451;-77
2021/12/24 05:49:41;;;;;;;44.65;13.57;;;8.70;99.90;;;;;;5055445;28;20049;-77
2021/12/24 05:52:07;;;;;;;37.05;11.02;;;8.70;99.90;;;;;;5053928;28;20723;-79
2021/12/24 05:54:33;;;;;;;37.65;11.27;;;8.70;99.90;;;;;;5038327;28;20041;-80
2021/12/24 05:56:59;;;;;;;38.28;11.85;;;8.70;99.90;;;;;;5055133;28;20045;-82
2021/12/24 05:59:25;;;;;;;39.33;12.27;;;8.70;99.90;;;;;;5055788;28;20155;-82
2021/12/24 06:01:51;;;;;;;35.20;9.70;;;8.70;99.90;;;;;;5055545;28;20051;-80
2021/12/24 06:04:17;;;;;;;40.72;10.50;;;8.10;99.90;;;;;;5056290;28;20048;-81
2021/12/24 06:06:43;;;;;;;41.15;11.90;;;7.70;99.90;;;;;;5055090;28;20049;-80
2021/12/24 06:09:09;;;;;;;29.95;10.38;;;8.60;99.90;;;;;;5056597;28;20041;-81
2021/12/24 06:11:34;;;;;;;55.08;11.27;;;8.60;99.90;;;;;;5054457;28;20473;-81
2021/12/24 06:14:09;;;;;;;44.45;10.70;;;8.60;99.90;;;;;;5055749;28;20044;-80
2021/12/24 06:16:35;;;;;;;36.80;10.23;;;8.50;99.90;;;;;;5056338;28;20047;-81
2021/12/24 06:19:03;;;;;;;42.42;11.18;;;8.50;99.90;;;;;;5067651;28;20044;-79
2021/12/24 06:21:31;;;;;;;45.17;10.73;;;8.50;99.90;;;;;;5057720;28;20055;-81
2021/12/24 06:23:57;;;;;;;40.38;9.85;;;8.50;99.90;;;;;;5057767;28;20400;-80
2021/12/24 06:26:22;;;;;;;35.72;8.98;;;8.40;99.90;;;;;;5040101;28;20049;-79
2021/12/24 06:28:48;;;;;;;33.10;7.80;;;8.50;99.90;;;;;;5057882;28;20052;-82
2021/12/24 06:31:14;;;;;;;37.92;8.02;;;8.50;99.90;;;;;;5057372;28;20037;-80
2021/12/24 06:33:40;;;;;;;37.08;9.30;;;8.50;99.90;;;;;;5056874;28;20045;-78
2021/12/24 06:36:07;;;;;;;32.05;8.63;;;8.40;99.90;;;;;;5057359;28;20049;-80
2021/12/24 06:38:33;;;;;;;32.40;7.78;;;8.50;99.90;;;;;;5057595;28;20553;-79
2021/12/24 06:40:58;;;;;;;31.35;8.55;;;8.50;99.90;;;;;;5057284;28;20040;-80
2021/12/24 06:43:24;;;;;;;39.22;9.45;;;8.40;99.90;;;;;;5075291;28;20053;-79
2021/12/24 06:45:50;;;;;;;32.83;8.60;;;8.40;99.90;;;;;;5057766;28;20087;-79
2021/12/24 06:48:17;;;;;;;41.08;8.65;;;8.40;99.90;;;;;;5056619;28;20239;-79
2021/12/24 06:50:43;;;;;;;39.30;8.63;;;8.40;99.90;;;;;;5057107;28;20052;-79
2021/12/24 06:53:09;;;;;;;44.70;10.13;;;8.40;99.90;;;;;;5040699;28;20123;-79
2021/12/24 06:55:36;;;;;;;38.30;9.18;;;8.30;99.90;;;;;;5074626;28;20167;-78
2021/12/24 06:58:03;;;;;;;35.05;8.13;;;8.30;99.90;;;;;;5075280;28;20037;-80
2021/12/24 07:00:28;;;;;;;34.00;8.23;;;8.30;99.90;;;;;;5057373;28;20045;-79
2021/12/24 07:02:57;;;;;;;27.65;6.70;;;8.30;99.90;;;;;;5056372;28;20047;-80
2021/12/24 07:05:24;;;;;;;22.48;6.68;;;9.30;99.90;;;;;;5039995;28;20049;-78
2021/12/24 07:07:51;;;;;;;35.42;7.40;;;8.30;99.90;;;;;;5057001;28;20040;-80
2021/12/24 07:10:17;;;;;;;37.08;7.82;;;8.20;99.90;;;;;;5056939;28;20083;-79
2021/12/24 07:12:43;;;;;;;35.72;7.85;;;8.20;99.90;;;;;;5057267;28;20572;-80
2021/12/24 07:15:09;;;;;;;34.95;6.90;;;8.20;99.90;;;;;;5056116;28;20041;-80
2021/12/24 07:17:38;;;;;;;40.22;8.35;;;8.20;99.90;;;;;;5056570;28;20076;-79
2021/12/24 07:20:04;;;;;;;39.55;7.55;;;8.20;99.90;;;;;;5040161;28;20044;-79
2021/12/24 07:22:30;;;;;;;38.22;7.30;;;8.20;99.90;;;;;;5055925;28;20036;-79
2021/12/24 07:24:56;;;;;;;25.60;6.93;;;8.20;99.90;;;;;;5056741;28;20059;-79
2021/12/24 07:27:21;;;;;;;21.60;5.28;;;8.20;99.90;;;;;;5056774;28;20055;-77
2021/12/24 07:29:47;;;;;;;37.70;6.55;;;8.20;99.90;;;;;;5073774;28;20052;-79
2021/12/24 07:32:13;;;;;;;27.48;6.28;;;8.20;99.90;;;;;;5056291;28;20040;-79
2021/12/24 07:34:39;;;;;;;33.72;6.93;;;8.20;99.90;;;;;;5074645;28;20063;-80
2021/12/24 07:37:04;;;;;;;42.08;7.85;;;8.20;99.90;;;;;;5055525;28;20044;-79
2021/12/24 07:39:30;;;;;;;34.33;6.05;;;8.20;99.90;;;;;;5074440;28;20123;-80
2021/12/24 07:41:56;;;;;;;34.38;6.65;;;8.10;99.90;;;;;;5074363;28;20075;-80
2021/12/24 07:44:22;;;;;;;28.23;6.15;;;8.10;99.90;;;;;;5073084;28;20052;-80
2021/12/24 07:46:54;;;;;;;38.63;7.63;;;8.20;99.90;;;;;;5074031;28;20097;-77
2021/12/24 07:52:08;;;;;;;27.58;6.57;;;8.10;99.90;;;;;;5055099;28;20055;-78
2021/12/24 07:54:41;;;;;;;18.52;4.20;;;8.10;99.90;;;;;;5020296;28;20049;-79
2021/12/24 07:57:10;;;;;;;31.83;5.90;;;8.10;99.90;;;;;;5035313;28;20059;-79
2021/12/24 07:59:40;;;;;;;32.50;5.93;;;8.20;99.90;;;;;;5036133;28;20406;-78
2021/12/24 08:02:13;;;;;;;28.88;6.72;;;8.20;99.90;;;;;;5036166;28;20480;-79
2021/12/24 08:04:39;;;;;;;34.03;5.70;;;8.20;99.90;;;;;;5029919;28;20041;-80
2021/12/24 08:07:06;;;;;;;25.73;4.38;;;8.20;99.90;;;;;;5039338;28;20053;-79
2021/12/24 08:09:32;;;;;;;28.30;6.53;;;8.20;99.90;;;;;;5056061;28;20051;-78
2021/12/24 08:11:59;;;;;;;30.27;5.38;;;8.20;99.90;;;;;;5072914;28;20135;-79
2021/12/24 08:14:24;;;;;;;27.83;5.25;;;8.20;99.90;;;;;;5023124;28;20040;-78
2021/12/24 08:16:50;;;;;;;32.03;5.35;;;8.20;99.90;;;;;;5056118;28;20509;-78
2021/12/24 08:19:18;;;;;;;32.30;5.97;;;8.20;99.90;;;;;;5055027;28;20044;-78
2021/12/24 08:21:45;;;;;;;31.67;5.43;;;8.20;99.90;;;;;;5052367;28;20053;-77
2021/12/24 08:24:13;;;;;;;27.60;5.22;;;8.20;99.90;;;;;;5069015;28;20052;-78
2021/12/24 08:26:38;;;;;;;29.88;5.32;;;8.20;99.90;;;;;;5034922;28;20124;-79
2021/12/24 08:29:10;;;;;;;29.23;5.90;;;8.20;99.90;;;;;;5036598;28;20178;-79
2021/12/24 08:31:37;;;;;;;22.10;4.72;;;8.20;99.90;;;;;;5019325;28;20078;-79
2021/12/24 08:34:04;;;;;;;17.42;3.97;;;8.20;99.90;;;;;;5052839;28;20133;-79
2021/12/24 08:36:30;;;;;;;26.55;4.55;;;8.30;99.90;;;;;;5066813;28;20235;-79
2021/12/24 08:38:56;;;;;;;18.30;3.90;;;8.30;99.90;;;;;;5073175;28;20074;-79
2021/12/24 08:41:23;;;;;;;20.52;5.05;;;8.20;99.90;;;;;;5072362;28;20051;-77
2021/12/24 08:43:49;;;;;;;29.17;4.82;;;8.30;99.90;;;;;;5054513;28;20040;-80
2021/12/24 08:46:14;;;;;;;19.08;4.82;;;8.30;99.90;;;;;;5073557;28;20044;-78
2021/12/24 08:48:40;;;;;;;20.80;4.90;;;8.30;99.90;;;;;;5072601;28;20103;-78
2021/12/24 08:51:06;;;;;;;31.83;5.75;;;8.30;99.90;;;;;;5073021;28;20040;-78
2021/12/24 08:53:32;;;;;;;37.03;5.22;;;8.30;99.90;;;;;;5054692;28;20045;-78
2021/12/24 08:55:58;;;;;;;31.20;4.90;;;8.30;99.90;;;;;;5073449;28;20064;-76
2021/12/24 08:58:24;;;;;;;28.23;6.18;;;8.40;99.90;;;;;;5073274;28;20102;-79
2021/12/24 09:00:50;;;;;;;34.50;5.45;;;8.40;99.90;;;;;;5054726;28;20037;-77
2021/12/24 09:03:16;;;;;;;14.70;4.47;;;8.30;99.90;;;;;;5072247;28;20476;-77
2021/12/24 09:05:42;;;;;;;22.88;5.47;;;8.30;99.90;;;;;;5072969;28;20051;-77
2021/12/24 09:08:08;;;;;;;26.30;5.43;;;8.30;99.90;;;;;;5037660;28;20040;-76
2021/12/24 09:10:34;;;;;;;27.17;5.68;;;8.40;99.90;;;;;;5055161;28;20090;-75
2021/12/24 09:13:01;;;;;;;20.25;4.75;;;8.40;99.90;;;;;;5055269;28;20056;-76
2021/12/24 09:15:30;;;;;;;30.70;5.57;;;8.30;99.90;;;;;;5054446;28;20033;-77
2021/12/24 09:18:01;;;;;;;23.95;5.63;;;8.40;99.90;;;;;;5038629;28;20056;-77
2021/12/24 09:20:34;;;;;;;30.10;5.70;;;8.40;99.90;;;;;;5054360;28;20407;-78
2021/12/24 09:23:01;;;;;;;29.27;6.38;;;8.40;99.90;;;;;;5037415;28;20055;-77
2021/12/24 09:25:28;;;;;;;27.80;5.95;;;8.40;99.90;;;;;;5055293;28;20409;-77
2021/12/24 09:27:56;;;;;;;39.95;6.57;;;8.40;99.90;;;;;;5055325;28;20388;-77
2021/12/24 09:30:22;;;;;;;26.20;6.63;;;8.40;99.90;;;;;;5072554;28;20068;-76
2021/12/24 09:32:48;;;;;;;28.75;6.50;;;8.40;99.90;;;;;;5072776;28;20055;-77
2021/12/24 09:35:14;;;;;;;23.33;5.85;;;8.40;99.90;;;;;;5072812;28;20506;-77
2021/12/24 09:37:41;;;;;;;23.10;4.68;;;8.40;99.90;;;;;;5072182;28;20075;-77
2021/12/24 09:40:09;;;;;;;25.20;5.65;;;8.30;99.90;;;;;;5072989;28;20072;-77
2021/12/24 09:42:35;;;;;;;24.98;5.10;;;8.40;99.90;;;;;;5072742;28;20051;-78
2021/12/24 09:45:03;;;;;;;26.88;4.75;;;8.30;99.90;;;;;;5072412;28;20395;-78
2021/12/24 09:47:29;;;;;;;20.98;5.18;;;8.30;99.90;;;;;;5054970;28;20087;-78
2021/12/24 09:49:55;;;;;;;20.95;4.70;;;8.30;99.90;;;;;;5071737;28;20098;-78
2021/12/24 09:52:22;;;;;;;16.77;4.47;;;8.30;99.90;;;;;;5072788;28;20044;-78
2021/12/24 09:54:49;;;;;;;20.02;4.47;;;8.30;99.90;;;;;;5073387;28;20053;-76
2021/12/24 09:57:15;;;;;;;27.80;4.97;;;8.30;99.90;;;;;;5075679;28;20079;-79
2021/12/24 09:59:42;;;;;;;18.70;4.38;;;8.30;99.90;;;;;;5075022;28;20446;-78
2021/12/24 10:02:14;;;;;;;17.02;4.65;;;8.30;99.90;;;;;;5072128;28;20044;-76
2021/12/24 10:04:41;;;;;;;18.38;4.80;;;8.30;99.90;;;;;;5075309;28;20055;-78
2021/12/24 10:07:10;;;;;;;26.90;4.53;;;8.30;99.90;;;;;;5074704;28;20501;-78
2021/12/24 10:09:42;;;;;;;15.18;5.13;;;8.30;99.90;;;;;;5074568;28;20182;-77
2021/12/24 10:12:14;;;;;;;11.23;3.50;;;8.30;99.90;;;;;;5075255;28;20048;-77
2021/12/24 10:14:46;;;;;;;10.32;2.58;;;8.30;99.90;;;;;;5075952;28;20052;-78
2021/12/24 10:17:23;;;;;;;7.82;2.42;;;8.30;99.90;;;;;;5058164;28;20174;-79
2021/12/24 10:19:53;;;;;;;3.28;0.80;;;8.20;99.90;;;;;;5075231;28;20067;-80
2021/12/24 10:22:20;;;;;;;1.05;0.88;;;8.20;99.90;;;;;;5057560;28;20488;-80
2021/12/24 10:25:13;;;;;;;2.22;1.00;;;8.00;99.90;;;;;;5071047;28;20090;-81
2021/12/24 10:27:39;;;;;;;1.25;0.70;;;7.90;99.90;;;;;;5048561;28;20067;-79
2021/12/24 10:30:31;;;;;;;0.60;0.60;;;7.70;99.90;;;;;;5073072;28;20485;-80
2021/12/24 10:33:06;;;;;;;0.60;0.60;;;7.60;99.90;;;;;;5074714;28;20048;-80
2021/12/24 10:35:32;;;;;;;0.75;0.68;;;7.50;99.90;;;;;;5057792;28;20053;-80
2021/12/24 10:38:10;;;;;;;1.02;0.95;;;7.30;99.90;;;;;;5075208;28;20388;-79
2021/12/24 10:40:36;;;;;;;0.70;0.70;;;7.20;99.90;;;;;;5056989;28;20102;-79
2021/12/24 10:43:02;;;;;;;0.70;0.65;;;7.10;99.90;;;;;;5074543;28;20083;-78
2021/12/24 10:45:28;;;;;;;1.10;1.00;;;7.10;99.90;;;;;;5057425;28;20052;-76
2021/12/24 10:47:54;;;;;;;1.00;0.90;;;7.00;99.90;;;;;;5074462;28;20097;-78
2021/12/24 10:55:23;;;;;;;1.30;1.10;;;6.90;99.90;;;;;;5074548;28;20048;-79
2021/12/24 10:57:51;;;;;;;1.38;1.27;;;6.80;99.90;;;;;;5075193;28;20055;-79
2021/12/24 11:00:42;;;;;;;1.30;1.13;;;6.80;99.90;;;;;;5074224;28;20548;-79
2021/12/24 11:03:22;;;;;;;1.65;1.20;;;6.80;99.90;;;;;;5074995;28;20076;-79
2021/12/24 11:05:51;;;;;;;1.48;1.10;;;6.80;99.90;;;;;;5074841;28;20400;-78
2021/12/24 11:08:25;;;;;;;1.00;0.90;;;6.70;99.90;;;;;;5073412;28;20408;-80
2021/12/24 11:10:56;;;;;;;4.68;1.25;;;6.70;99.90;;;;;;5074737;28;20499;-80
2021/12/24 11:13:31;;;;;;;1.20;0.95;;;6.70;99.90;;;;;;5056797;28;20048;-79
2021/12/24 11:15:59;;;;;;;2.25;1.30;;;6.60;99.90;;;;;;5055865;28;20059;-79
2021/12/24 11:18:26;;;;;;;1.10;1.00;;;6.70;99.90;;;;;;5056757;28;20064;-78
2021/12/24 11:21:14;;;;;;;1.05;0.85;;;6.70;99.90;;;;;;5074710;28;20484;-80
2021/12/24 11:23:41;;;;;;;0.77;0.70;;;6.80;99.90;;;;;;5059957;28;20135;-79
2021/12/24 11:26:12;;;;;;;1.77;0.88;;;6.80;99.90;;;;;;5074477;28;20048;-78
2021/12/24 11:29:06;;;;;;;1.08;0.98;;;6.70;99.90;;;;;;5056045;28;20460;-79
2021/12/24 11:31:33;;;;;;;1.17;1.08;;;6.80;99.90;;;;;;5055852;28;20060;-79
2021/12/24 11:34:00;;;;;;;1.25;1.15;;;6.70;99.90;;;;;;5074558;28;20044;-81
2021/12/24 11:36:28;;;;;;;1.33;1.23;;;6.70;99.90;;;;;;5055712;28;20076;-79
2021/12/24 11:39:06;;;;;;;1.58;1.48;;;6.70;99.90;;;;;;5073825;28;20036;-78
2021/12/24 11:41:33;;;;;;;2.47;1.10;;;6.70;99.90;;;;;;5072726;28;20492;-79
2021/12/24 11:44:06;;;;;;;2.33;1.10;;;6.60;99.90;;;;;;5073130;28;20516;-79
2021/12/24 11:46:35;;;;;;;1.38;1.27;;;6.70;99.90;;;;;;5072802;28;20036;-79
2021/12/24 11:49:01;;;;;;;2.25;1.30;;;6.70;99.90;;;;;;5073719;28;20072;-80
2021/12/24 11:51:33;;;;;;;2.20;1.15;;;6.70;99.90;;;;;;5055203;28;20098;-80
2021/12/24 11:54:05;;;;;;;2.03;1.33;;;6.60;99.90;;;;;;5073593;28;20053;-79
2021/12/24 11:56:56;;;;;;;1.92;1.75;;;6.60;99.90;;;;;;5073029;28;20046;-79
2021/12/24 11:59:39;;;;;;;1.65;1.45;;;6.60;99.90;;;;;;5074032;28;20054;-79
2021/12/24 12:02:07;;;;;;;2.13;1.42;;;6.60;99.90;;;;;;5074182;28;20389;-79
2021/12/24 12:04:33;;;;;;;1.70;1.35;;;6.60;99.90;;;;;;5072921;28;20137;-80
2021/12/24 12:07:17;;;;;;;1.40;1.30;;;6.50;99.90;;;;;;5072633;28;20076;-79
2021/12/24 12:09:45;;;;;;;1.50;1.40;;;6.50;99.90;;;;;;5073343;28;20056;-79
2021/12/24 12:12:14;;;;;;;1.98;1.50;;;6.50;99.90;;;;;;5072902;28;20037;-79
2021/12/24 12:14:41;;;;;;;2.15;1.40;;;6.50;99.90;;;;;;5073650;28;20471;-80
2021/12/24 12:17:08;;;;;;;1.50;1.40;;;6.50;99.90;;;;;;5073336;28;20048;-79
2021/12/24 12:22:44;;;;;;;1.52;1.42;;;6.50;99.90;;;;;;5073793;28;20063;-80
2021/12/24 12:25:13;;;;;;;2.40;1.48;;;6.50;99.90;;;;;;5072848;28;20044;-80
2021/12/24 12:27:58;;;;;;;1.92;1.67;;;6.40;99.90;;;;;;5073209;28;20378;-80
2021/12/24 12:30:48;;;;;;;2.45;1.58;;;6.40;99.90;;;;;;5061061;28;20037;-80
2021/12/24 12:33:36;;;;;;;5.88;1.98;;;6.40;99.90;;;;;;5072952;28;20044;-79
2021/12/24 12:36:04;;;;;;;2.30;2.10;;;6.40;99.90;;;;;;5073160;28;20496;-79
2021/12/24 12:38:46;;;;;;;4.47;2.03;;;6.40;99.90;;;;;;5072492;28;20442;-79
2021/12/24 12:41:23;;;;;;;2.63;1.90;;;6.50;99.90;;;;;;5055599;28;20131;-80
2021/12/24 12:43:52;;;;;;;3.30;1.90;;;6.50;99.90;;;;;;5072941;28;20049;-80
2021/12/24 12:46:39;;;;;;;3.90;1.98;;;6.50;99.90;;;;;;5056243;28;20110;-80
2021/12/24 12:49:08;;;;;;;4.15;2.17;;;6.50;99.90;;;;;;5055586;28;20518;-80
2021/12/24 12:51:48;;;;;;;3.78;2.08;;;6.60;99.90;;;;;;5073325;28;20033;-80
2021/12/24 12:54:31;;;;;;;4.57;2.20;;;6.70;99.90;;;;;;5071966;28;20037;-80
2021/12/24 12:57:23;;;;;;;3.88;2.00;;;6.70;99.90;;;;;;5073142;28;20555;-80
2021/12/24 13:00:07;;;;;;;3.97;1.80;;;6.70;99.90;;;;;;5072301;28;20044;-80
2021/12/24 13:03:07;;;;;;;3.47;2.63;;;6.80;99.90;;;;;;5073024;28;20048;-80
2021/12/24 13:05:42;;;;;;;3.50;2.00;;;6.90;99.90;;;;;;5073044;28;20494;-80
2021/12/24 13:08:12;;;;;;;5.38;2.40;;;6.90;99.90;;;;;;5071924;28;20041;-80
2021/12/24 13:10:38;;;;;;;4.97;2.35;;;6.90;99.90;;;;;;5073092;28;20388;-80
2021/12/24 13:13:06;;;;;;;3.80;2.53;;;6.90;99.90;;;;;;5054796;28;20396;-80
2021/12/24 13:15:45;;;;;;;4.10;2.47;;;6.90;99.90;;;;;;5072638;28;20052;-80
2021/12/24 13:18:25;;;;;;;4.15;2.33;;;7.00;99.90;;;;;;5072839;28;20136;-80
2021/12/24 13:23:38;;;;;;;2.42;2.00;;;6.90;99.90;;;;;;5072771;28;20125;-80
2021/12/24 13:26:15;;;;;;;3.88;2.58;;;6.90;99.90;;;;;;5070995;28;20036;-80
2021/12/24 13:29:17;;;;;;;200.57;143.65;;;6.90;99.90;;;;;;5071643;28;20064;-80
2021/12/24 13:31:55;;;;;;;17.40;14.57;;;6.90;99.90;;;;;;5059968;28;20049;-80
2021/12/24 13:34:22;;;;;;;4.95;4.03;;;6.80;99.90;;;;;;5075998;28;20170;-80
2021/12/24 13:36:48;;;;;;;3.53;2.42;;;6.80;99.90;;;;;;5075792;28;20052;-80
2021/12/24 13:39:18;;;;;;;4.43;2.83;;;6.90;99.90;;;;;;5057947;28;20044;-80
2021/12/24 13:41:45;;;;;;;3.03;2.38;;;6.90;99.90;;;;;;5058818;28;20059;-79
2021/12/24 13:44:29;;;;;;;3.88;2.45;;;6.90;99.90;;;;;;5076578;28;20055;-79
2021/12/24 13:47:11;;;;;;;2.75;2.47;;;6.90;99.90;;;;;;5058552;28;20048;-80
2021/12/24 13:55:21;;;;;;;4.03;2.78;;;7.00;99.90;;;;;;5076220;28;20766;-79
2021/12/24 13:57:52;;;;;;;4.30;2.40;;;6.90;99.90;;;;;;5057706;28;20127;-79
2021/12/24 14:00:18;;;;;;;6.07;2.70;;;6.90;99.90;;;;;;5076061;28;20046;-79
2021/12/24 14:02:51;;;;;;;3.38;2.50;;;6.90;99.90;;;;;;5075687;28;20045;-79
2021/12/24 14:05:18;;;;;;;3.65;2.47;;;6.90;99.90;;;;;;5076380;28;20048;-80
2021/12/24 14:07:46;;;;;;;3.33;2.60;;;6.90;99.90;;;;;;5057995;28;20083;-80
2021/12/24 14:10:25;;;;;;;4.30;2.80;;;6.80;99.90;;;;;;5057513;28;20763;-80
2021/12/24 14:12:50;;;;;;;6.50;2.58;;;6.90;99.90;;;;;;5058377;28;20049;-80
2021/12/24 14:15:22;;;;;;;4.20;2.92;;;6.80;99.90;;;;;;5076286;28;20602;-79
2021/12/24 14:20:59;;;;;;;5.32;2.75;;;6.80;99.90;;;;;;5038182;28;20049;-80
2021/12/24 14:23:19;;;;;;;3.17;1.95;;;6.80;99.90;;;;;;5067422;28;20044;-80
2021/12/24 14:25:56;;;;;;;3.47;2.00;;;6.80;99.90;;;;;;5075290;28;20051;-80
2021/12/24 14:28:23;;;;;;;6.93;2.53;;;6.70;99.90;;;;;;5076109;28;20105;-78
2021/12/24 14:30:56;;;;;;;3.97;2.38;;;6.80;99.90;;;;;;5057909;28;20044;-78
2021/12/24 14:33:22;;;;;;;5.60;2.38;;;6.70;99.90;;;;;;5057465;28;20131;-78
2021/12/24 14:35:52;;;;;;;7.80;2.58;;;6.70;99.90;;;;;;5054270;28;20103;-78
2021/12/24 14:38:18;;;;;;;6.35;2.53;;;6.70;99.90;;;;;;5020557;28;20484;-78
2021/12/24 14:40:53;;;;;;;3.50;2.30;;;6.70;99.90;;;;;;5055244;28;20048;-78
2021/12/24 14:43:20;;;;;;;5.82;2.45;;;6.70;99.90;;;;;;5054985;28;20049;-79
2021/12/24 14:45:47;;;;;;;5.15;1.95;;;6.70;99.90;;;;;;5072809;28;20071;-80
2021/12/24 14:48:13;;;;;;;2.85;1.30;;;6.70;99.90;;;;;;5055728;28;20047;-79
2021/12/24 14:50:44;;;;;;;3.83;1.90;;;6.60;99.90;;;;;;5075633;28;20032;-79
2021/12/24 14:53:21;;;;;;;3.17;1.90;;;6.60;99.90;;;;;;5074426;28;20068;-80
2021/12/24 14:55:49;;;;;;;2.72;1.67;;;6.60;99.90;;;;;;5075527;28;20044;-79
2021/12/24 14:58:33;;;;;;;2.10;1.67;;;6.60;99.90;;;;;;5075347;28;20395;-79
2021/12/24 15:01:05;;;;;;;1.20;1.08;;;6.50;99.90;;;;;;5074579;28;20048;-79